createdAt,value
2022-11-18T00:01:33.284Z,3.93
2022-11-18T00:04:18.752Z,4.33
2022-11-18T00:07:04.378Z,6.27
2022-11-18T00:09:49.638Z,5.63
2022-11-18T00:12:53.263Z,4.53
2022-11-18T00:18:24.209Z,6.13
2022-11-18T00:21:11.715Z,7.07
2022-11-18T00:23:57.197Z,5.97
2022-11-18T00:26:42.681Z,5.03
2022-11-18T00:29:28.542Z,4.30
2022-11-18T00:32:14.091Z,7.10
2022-11-18T00:34:59.400Z,4.53
2022-11-18T00:37:44.663Z,3.63
2022-11-18T00:40:30.107Z,4.83
2022-11-18T00:43:15.354Z,4.17
2022-11-18T00:46:01.114Z,5.37
2022-11-18T00:48:46.568Z,4.37
2022-11-18T00:51:31.984Z,4.50
2022-11-18T00:54:17.684Z,4.07
2022-11-18T00:57:04.568Z,5.63
2022-11-18T00:59:50.240Z,5.27
2022-11-18T01:02:35.812Z,3.50
2022-11-18T01:05:21.411Z,4.60
2022-11-18T01:08:09.281Z,5.10
2022-11-18T01:10:54.711Z,5.17
2022-11-18T01:13:40.200Z,4.53
2022-11-18T01:16:27.995Z,3.93
2022-11-18T01:19:13.760Z,5.07
2022-11-18T01:22:03.486Z,4.60
2022-11-18T01:24:49.083Z,4.07
2022-11-18T01:27:34.276Z,3.97
2022-11-18T01:30:19.818Z,5.13
2022-11-18T01:33:06.370Z,4.20
2022-11-18T01:35:51.998Z,4.27
2022-11-18T01:38:37.256Z,4.10
2022-11-18T01:41:25.670Z,3.70
2022-11-18T01:44:48.594Z,4.83
2022-11-18T01:47:42.403Z,4.60
2022-11-18T01:50:29.434Z,4.37
2022-11-18T01:53:30.822Z,3.40
2022-11-18T01:56:24.256Z,3.37
2022-11-18T01:59:13.565Z,3.67
2022-11-18T02:02:01.496Z,4.10
2022-11-18T02:04:50.041Z,4.40
2022-11-18T02:07:42.923Z,3.80
2022-11-18T02:10:28.608Z,5.20
2022-11-18T02:13:14.927Z,3.50
2022-11-18T02:16:20.668Z,2.70
2022-11-18T02:19:29.229Z,4.00
2022-11-18T02:22:23.757Z,3.67
2022-11-18T02:25:31.637Z,3.33
2022-11-18T02:28:35.292Z,4.07
2022-11-18T02:31:41.731Z,5.35
2022-11-18T02:34:53.485Z,3.83
2022-11-18T02:38:02.636Z,2.77
2022-11-18T02:41:03.568Z,3.83
2022-11-18T02:44:06.076Z,3.20
2022-11-18T02:46:58.578Z,4.22
2022-11-18T02:49:49.404Z,3.60
2022-11-18T02:52:37.902Z,5.27
2022-11-18T02:55:25.626Z,3.97
2022-11-18T02:58:12.612Z,3.27
2022-11-18T03:01:00.576Z,4.43
2022-11-18T03:03:46.524Z,3.50
2022-11-18T03:06:37.930Z,3.17
2022-11-18T03:09:29.412Z,4.40
2022-11-18T03:12:46.786Z,4.77
2022-11-18T03:15:40.237Z,3.50
2022-11-18T03:18:37.167Z,3.22
2022-11-18T03:21:35.673Z,3.90
2022-11-18T03:24:28.211Z,4.13
2022-11-18T03:27:17.710Z,4.23
2022-11-18T03:30:08.427Z,4.30
2022-11-18T03:33:04.567Z,3.77
2022-11-18T03:35:53.770Z,3.57
2022-11-18T03:38:46.236Z,3.47
2022-11-18T03:41:36.593Z,3.50
2022-11-18T03:44:29.093Z,4.07
2022-11-18T03:47:27.341Z,3.60
2022-11-18T03:50:24.325Z,4.10
2022-11-18T03:53:11.110Z,4.87
2022-11-18T03:56:14.220Z,4.10
2022-11-18T03:59:13.212Z,3.10
2022-11-18T04:07:58.915Z,4.85
2022-11-18T04:10:59.975Z,4.10
2022-11-18T04:13:45.547Z,4.17
2022-11-18T04:16:31.023Z,4.60
2022-11-18T04:19:16.426Z,4.83
2022-11-18T04:22:01.688Z,3.83
2022-11-18T04:24:47.006Z,4.23
2022-11-18T04:27:32.292Z,3.80
2022-11-18T04:30:19.323Z,4.20
2022-11-18T04:33:05.281Z,4.13
2022-11-18T04:35:50.522Z,3.90
2022-11-18T04:38:35.718Z,3.93
2022-11-18T04:41:20.953Z,3.60
2022-11-18T04:44:13.179Z,5.77
2022-11-18T04:47:04.401Z,4.00
2022-11-18T04:49:49.909Z,4.03
2022-11-18T04:52:35.224Z,4.67
2022-11-18T04:55:20.789Z,5.23
2022-11-18T04:58:06.484Z,3.77
2022-11-18T05:00:51.887Z,4.93
2022-11-18T05:03:37.100Z,4.47
2022-11-18T05:06:23.274Z,4.80
2022-11-18T05:09:09.469Z,3.17
2022-11-18T05:12:13.927Z,4.33
2022-11-18T05:14:59.534Z,2.97
2022-11-18T05:17:45.372Z,3.77
2022-11-18T05:20:31.037Z,4.67
2022-11-18T05:23:16.351Z,4.03
2022-11-18T05:26:10.254Z,5.27
2022-11-18T05:28:55.972Z,4.40
2022-11-18T05:31:41.538Z,3.40
2022-11-18T05:34:26.959Z,4.23
2022-11-18T05:37:12.464Z,4.97
2022-11-18T05:39:58.140Z,8.40
2022-11-18T05:43:01.999Z,6.13
2022-11-18T05:45:51.392Z,6.70
2022-11-18T05:48:37.109Z,6.97
2022-11-18T05:51:22.511Z,5.93
2022-11-18T05:54:09.692Z,6.70
2022-11-18T05:56:55.048Z,7.67
2022-11-18T05:59:40.296Z,11.27
2022-11-18T06:02:25.753Z,8.60
2022-11-18T06:05:12.229Z,8.17
2022-11-18T06:07:58.523Z,9.20
2022-11-18T06:10:47.068Z,6.90
2022-11-18T06:13:50.326Z,8.93
2022-11-18T06:16:40.973Z,9.55
2022-11-18T06:19:26.886Z,6.77
2022-11-18T06:22:12.824Z,9.13
2022-11-18T06:24:58.437Z,7.70
2022-11-18T06:27:44.718Z,6.60
2022-11-18T06:35:48.558Z,10.13
2022-11-18T06:38:33.942Z,6.47
2022-11-18T06:41:19.331Z,7.53
2022-11-18T06:44:04.560Z,8.20
2022-11-18T06:46:55.704Z,9.07
2022-11-18T06:49:41.250Z,6.77
2022-11-18T06:52:26.516Z,7.60
2022-11-18T06:55:11.843Z,5.60
2022-11-18T06:57:57.251Z,6.40
2022-11-18T07:00:42.862Z,7.63
2022-11-18T07:03:28.122Z,6.50
2022-11-18T07:06:16.277Z,9.03
2022-11-18T07:09:03.084Z,10.03
2022-11-18T07:11:48.428Z,8.33
2022-11-18T07:14:33.705Z,8.07
2022-11-18T07:17:19.218Z,9.03
2022-11-18T07:20:04.604Z,10.13
2022-11-18T07:22:52.903Z,8.83
2022-11-18T07:25:44.030Z,8.80
2022-11-18T07:28:31.541Z,9.37
2022-11-18T07:31:19.538Z,10.67
2022-11-18T07:34:04.741Z,11.03
2022-11-18T07:36:50.039Z,7.70
2022-11-18T07:39:35.412Z,10.07
2022-11-18T07:42:20.700Z,8.10
2022-11-18T07:45:06.263Z,9.03
2022-11-18T07:47:51.929Z,8.20
2022-11-18T07:50:37.418Z,8.90
2022-11-18T07:53:22.497Z,10.40
2022-11-18T07:56:09.246Z,8.13
2022-11-18T07:58:55.931Z,12.07
2022-11-18T08:01:41.347Z,8.10
2022-11-18T08:04:26.527Z,7.97
2022-11-18T08:07:11.845Z,9.90
2022-11-18T08:09:57.273Z,8.40
2022-11-18T08:12:42.445Z,10.57
2022-11-18T08:15:27.723Z,10.93
2022-11-18T08:18:13.943Z,9.10
2022-11-18T08:21:04.046Z,9.57
2022-11-18T08:23:55.054Z,9.07
2022-11-18T08:26:40.641Z,9.03
2022-11-18T08:29:27.740Z,7.47
2022-11-18T08:32:13.391Z,7.60
2022-11-18T08:34:59.201Z,10.50
2022-11-18T08:37:44.685Z,7.50
2022-11-18T08:40:29.917Z,9.00
2022-11-18T08:43:15.344Z,7.37
2022-11-18T08:46:00.534Z,8.57
2022-11-18T08:48:45.827Z,8.97
2022-11-18T08:51:31.060Z,7.60
2022-11-18T09:02:15.578Z,7.87
2022-11-18T09:05:00.818Z,8.63
2022-11-18T09:07:46.225Z,10.23
2022-11-18T09:10:31.378Z,9.33
2022-11-18T09:13:47.483Z,7.37
2022-11-18T09:16:27.671Z,10.37
2022-11-18T09:19:45.627Z,7.23
2022-11-18T09:22:21.183Z,10.70
2022-11-18T09:25:07.162Z,8.20
2022-11-18T09:27:52.752Z,9.50
2022-11-18T09:30:38.016Z,8.17
2022-11-18T09:33:23.849Z,7.50
2022-11-18T09:36:19.810Z,6.67
2022-11-18T09:39:05.689Z,8.53
2022-11-18T09:42:28.375Z,5.33
2022-11-18T09:45:30.887Z,11.47
2022-11-18T09:48:19.566Z,8.90
2022-11-18T09:51:05.884Z,11.03
2022-11-18T09:53:51.165Z,8.47
2022-11-18T09:56:36.565Z,5.17
2022-11-18T09:59:24.927Z,7.93
2022-11-18T10:02:13.468Z,5.80
2022-11-18T10:05:14.970Z,5.97
2022-11-18T10:08:23.740Z,5.70
2022-11-18T10:11:20.073Z,8.47
2022-11-18T10:14:35.057Z,6.17
2022-11-18T10:17:29.556Z,4.23
2022-11-18T10:20:47.723Z,8.17
2022-11-18T10:23:57.211Z,6.00
2022-11-18T10:26:42.590Z,4.93
2022-11-18T10:29:27.935Z,6.13
2022-11-18T10:32:18.308Z,5.83
2022-11-18T10:35:03.882Z,6.13
2022-11-18T10:38:07.713Z,9.33
2022-11-18T10:41:08.714Z,8.23
2022-11-18T10:43:56.329Z,8.90
2022-11-18T10:46:42.445Z,6.47
2022-11-18T10:49:27.894Z,6.00
2022-11-18T10:52:14.433Z,8.93
2022-11-18T10:55:14.001Z,7.17
2022-11-18T10:58:18.267Z,6.13
2022-11-18T11:01:18.955Z,5.37
2022-11-18T11:04:20.210Z,7.43
2022-11-18T11:07:36.736Z,6.83
2022-11-18T11:10:23.516Z,8.50
2022-11-18T11:13:15.715Z,7.10
2022-11-18T11:16:05.543Z,5.90
2022-11-18T11:19:00.038Z,10.97
2022-11-18T11:21:45.601Z,5.43
2022-11-18T11:24:30.948Z,6.50
2022-11-18T11:30:38.795Z,7.73
2022-11-18T11:33:58.227Z,5.70
2022-11-18T11:37:20.962Z,9.53
2022-11-18T11:40:37.704Z,5.17
2022-11-18T11:44:07.869Z,4.93
2022-11-18T11:47:48.136Z,10.30
2022-11-18T11:51:05.166Z,6.87
2022-11-18T11:54:24.618Z,6.63
2022-11-18T11:57:43.485Z,6.50
2022-11-18T12:00:33.367Z,7.37
2022-11-18T12:03:51.711Z,5.27
2022-11-18T12:06:37.858Z,7.43
2022-11-18T12:09:32.352Z,8.07
2022-11-18T12:12:34.345Z,5.63
2022-11-18T12:15:57.272Z,5.20
2022-11-18T12:18:52.872Z,6.80
2022-11-18T12:21:47.806Z,6.87
2022-11-18T12:24:43.522Z,7.60
2022-11-18T12:27:30.149Z,8.40
2022-11-18T12:30:19.398Z,6.07
2022-11-18T12:33:17.417Z,5.80
2022-11-18T12:36:02.674Z,5.57
2022-11-18T12:38:48.414Z,8.07
2022-11-18T12:41:58.552Z,5.17
2022-11-18T12:44:46.655Z,4.33
2022-11-18T12:47:41.251Z,7.33
2022-11-18T12:50:48.084Z,7.20
2022-11-18T12:53:40.093Z,8.37
2022-11-18T12:56:34.726Z,8.27
2022-11-18T12:59:32.881Z,12.00
2022-11-18T13:02:27.932Z,17.33
2022-11-18T13:05:21.753Z,15.60
2022-11-18T13:08:15.599Z,37.63
2022-11-18T13:11:29.007Z,49.00
2022-11-18T13:14:44.311Z,60.22
2022-11-18T13:17:51.810Z,51.70
2022-11-18T13:20:38.921Z,63.23
2022-11-18T13:23:49.934Z,104.40
2022-11-18T13:26:35.855Z,110.37
2022-11-18T13:29:43.558Z,100.77
2022-11-18T13:32:29.643Z,114.67
2022-11-18T13:35:17.574Z,98.00
2022-11-18T13:38:03.422Z,96.70
2022-11-18T13:41:04.630Z,88.03
2022-11-18T13:43:54.045Z,80.40
2022-11-18T13:46:41.823Z,80.70
2022-11-18T13:49:47.431Z,59.20
2022-11-18T13:52:42.016Z,60.93
2022-11-18T13:55:30.171Z,64.37
2022-11-18T13:58:18.738Z,60.77
2022-11-18T14:01:13.676Z,60.03
2022-11-18T14:04:09.644Z,61.60
2022-11-18T14:07:34.947Z,62.57
2022-11-18T14:10:31.401Z,58.43
2022-11-18T14:13:26.580Z,69.33
2022-11-18T14:16:17.969Z,61.27
2022-11-18T14:19:04.005Z,62.03
2022-11-18T14:21:50.037Z,63.40
2022-11-18T14:24:35.868Z,67.67
2022-11-18T14:27:41.338Z,59.97
2022-11-18T14:30:35.779Z,61.50
2022-11-18T14:33:22.988Z,67.33
2022-11-18T14:36:17.755Z,60.30
2022-11-18T14:39:26.289Z,59.47
2022-11-18T14:42:13.174Z,57.90
2022-11-18T14:44:58.726Z,58.33
2022-11-18T14:47:44.953Z,52.07
2022-11-18T14:50:30.752Z,60.77
2022-11-18T14:53:16.565Z,54.13
2022-11-18T14:56:01.986Z,54.40
2022-11-18T14:58:47.211Z,49.50
2022-11-18T15:01:32.693Z,48.50
2022-11-18T15:04:20.579Z,45.67
2022-11-18T15:07:06.329Z,29.37
2022-11-18T15:09:52.229Z,23.07
2022-11-18T15:12:37.436Z,32.90
2022-11-18T15:15:23.645Z,33.47
2022-11-18T15:18:09.414Z,33.00
2022-11-18T15:20:54.585Z,26.03
2022-11-18T15:23:40.479Z,30.53
2022-11-18T15:26:28.625Z,26.33
2022-11-18T15:29:22.845Z,26.20
2022-11-18T15:32:08.394Z,23.90
2022-11-18T15:34:54.001Z,22.43
2022-11-18T15:37:40.136Z,24.97
2022-11-18T15:40:25.266Z,24.07
2022-11-18T15:43:10.481Z,27.00
2022-11-18T15:45:59.787Z,22.60
2022-11-18T15:48:45.588Z,25.90
2022-11-18T15:51:31.168Z,23.07
2022-11-18T15:54:16.949Z,23.77
2022-11-18T15:57:02.423Z,26.07
2022-11-18T15:59:48.100Z,23.60
2022-11-18T16:02:33.738Z,27.33
2022-11-18T16:05:19.040Z,25.13
2022-11-18T16:08:04.428Z,29.07
2022-11-18T16:11:14.346Z,23.40
2022-11-18T16:14:05.703Z,30.77
2022-11-18T16:16:54.164Z,20.97
2022-11-18T16:19:39.484Z,23.10
2022-11-18T16:22:24.901Z,23.13
2022-11-18T16:25:10.366Z,23.30
2022-11-18T16:27:59.549Z,23.90
2022-11-18T16:31:09.727Z,24.03
2022-11-18T16:33:55.076Z,21.23
2022-11-18T16:36:42.352Z,29.73
2022-11-18T16:39:28.556Z,21.57
2022-11-18T16:42:14.198Z,23.67
2022-11-18T16:44:59.404Z,25.03
2022-11-18T16:47:44.889Z,23.80
2022-11-18T16:50:30.360Z,24.57
2022-11-18T16:53:15.652Z,23.43
2022-11-18T16:56:03.991Z,21.90
2022-11-18T16:58:49.711Z,21.77
2022-11-18T17:01:35.595Z,23.50
2022-11-18T17:04:21.430Z,19.97
2022-11-18T17:07:07.026Z,24.07
2022-11-18T17:09:53.027Z,23.50
2022-11-18T17:12:38.924Z,22.93
2022-11-18T17:15:25.720Z,21.40
2022-11-18T17:18:10.851Z,22.17
2022-11-18T17:20:56.448Z,22.27
2022-11-18T17:23:41.816Z,23.23
2022-11-18T17:26:28.179Z,24.00
2022-11-18T17:29:13.917Z,22.50
2022-11-18T17:31:59.758Z,26.20
2022-11-18T17:34:44.975Z,21.03
2022-11-18T17:37:30.942Z,24.23
2022-11-18T17:40:16.691Z,22.07
2022-11-18T17:43:02.460Z,19.77
2022-11-18T17:45:52.591Z,19.97
2022-11-18T17:48:38.083Z,19.40
2022-11-18T17:51:24.638Z,18.30
2022-11-18T17:54:10.492Z,23.93
2022-11-18T17:56:56.186Z,22.13
2022-11-18T17:59:41.466Z,20.07
2022-11-18T18:02:27.278Z,18.83
2022-11-18T18:05:12.821Z,18.60
2022-11-18T18:07:59.170Z,17.67
2022-11-18T18:10:44.761Z,19.70
2022-11-18T18:13:48.818Z,19.47
2022-11-18T18:16:34.867Z,19.83
2022-11-18T18:19:22.459Z,19.30
2022-11-18T18:22:07.758Z,18.73
2022-11-18T18:24:53.307Z,18.20
2022-11-18T18:27:39.257Z,18.83
2022-11-18T18:30:24.800Z,19.60
2022-11-18T18:33:10.338Z,18.37
2022-11-18T18:36:00.817Z,15.80
2022-11-18T18:38:46.988Z,16.77
2022-11-18T18:41:32.960Z,16.50
2022-11-18T18:44:19.017Z,20.73
2022-11-18T18:47:04.796Z,19.80
2022-11-18T18:49:50.981Z,16.77
2022-11-18T18:52:36.600Z,18.47
2022-11-18T18:55:22.107Z,18.27
2022-11-18T18:58:07.302Z,17.87
2022-11-18T19:00:56.996Z,16.20
2022-11-18T19:03:44.431Z,23.00
2022-11-18T19:06:56.751Z,17.63
2022-11-18T19:09:39.850Z,18.33
2022-11-18T19:12:43.243Z,19.97
2022-11-18T19:18:14.404Z,16.30
2022-11-18T19:20:59.581Z,19.07
2022-11-18T19:23:44.921Z,19.27
2022-11-18T19:26:30.435Z,16.23
2022-11-18T19:29:16.150Z,15.67
2022-11-18T19:32:01.497Z,16.00
2022-11-18T19:34:46.698Z,17.00
2022-11-18T19:37:32.287Z,16.07
2022-11-18T19:40:18.102Z,14.67
2022-11-18T19:43:03.709Z,12.87
2022-11-18T19:45:52.331Z,15.67
2022-11-18T19:48:37.642Z,14.50
2022-11-18T19:51:23.606Z,15.07
2022-11-18T19:54:09.318Z,15.30
2022-11-18T19:56:54.483Z,14.37
2022-11-18T19:59:39.884Z,13.87
2022-11-18T20:02:25.041Z,14.00
2022-11-18T20:05:33.357Z,15.27
2022-11-18T20:08:24.113Z,15.60
2022-11-18T20:11:11.590Z,14.17
2022-11-18T20:13:56.965Z,13.57
2022-11-18T20:16:42.480Z,15.77
2022-11-18T20:19:28.109Z,12.57
2022-11-18T20:22:13.395Z,16.57
2022-11-18T20:24:59.431Z,13.30
2022-11-18T20:27:45.559Z,11.83
2022-11-18T20:30:30.806Z,16.37
2022-11-18T20:33:16.032Z,10.27
2022-11-18T20:36:22.260Z,12.43
2022-11-18T20:39:13.621Z,10.60
2022-11-18T20:42:17.727Z,10.07
2022-11-18T20:45:02.919Z,10.48
2022-11-18T20:47:48.208Z,11.43
2022-11-18T20:50:37.609Z,9.23
2022-11-18T20:53:25.432Z,11.27
2022-11-18T20:56:23.796Z,10.13
2022-11-18T20:59:09.014Z,10.33
2022-11-18T21:01:54.352Z,8.93
2022-11-18T21:04:40.092Z,11.60
2022-11-18T21:07:25.384Z,9.33
2022-11-18T21:10:10.765Z,9.40
2022-11-18T21:13:15.158Z,10.37
2022-11-18T21:16:01.664Z,10.83
2022-11-18T21:18:47.684Z,8.47
2022-11-18T21:21:45.136Z,11.03
2022-11-18T21:24:32.987Z,9.63
2022-11-18T21:27:18.192Z,7.70
2022-11-18T21:30:03.804Z,8.53
2022-11-18T21:32:49.605Z,8.37
2022-11-18T21:35:36.430Z,10.23
2022-11-18T21:38:21.958Z,8.53
2022-11-18T21:41:07.918Z,8.63
2022-11-18T21:44:08.971Z,7.60
2022-11-18T21:46:55.068Z,8.33
2022-11-18T21:49:40.367Z,9.20
2022-11-18T21:52:25.667Z,8.87
2022-11-18T21:55:10.980Z,9.63
2022-11-18T21:58:01.218Z,8.13
2022-11-18T22:00:48.122Z,8.03
2022-11-18T22:03:33.434Z,8.00
2022-11-18T22:06:19.388Z,7.47
2022-11-18T22:09:07.232Z,7.17
2022-11-18T22:11:52.955Z,8.67
2022-11-18T22:14:38.217Z,7.70
2022-11-18T22:17:23.465Z,8.57
2022-11-18T22:20:09.341Z,6.97
2022-11-18T22:22:55.050Z,8.33
2022-11-18T22:25:40.550Z,8.00
2022-11-18T22:28:26.197Z,7.83
2022-11-18T22:31:13.051Z,7.90
2022-11-18T22:33:58.613Z,7.50
2022-11-18T22:36:43.814Z,8.10
2022-11-18T22:39:29.388Z,8.17
2022-11-18T22:42:33.361Z,7.40
2022-11-18T22:45:18.769Z,8.27
2022-11-18T22:48:04.398Z,7.37
2022-11-18T22:51:00.668Z,7.97
2022-11-18T22:53:46.138Z,7.93
2022-11-18T22:56:31.736Z,7.80
2022-11-18T22:59:17.803Z,6.50
2022-11-18T23:02:03.149Z,6.70
2022-11-18T23:04:48.488Z,6.53
2022-11-18T23:07:33.974Z,6.80
2022-11-18T23:10:19.575Z,6.40
2022-11-18T23:13:23.333Z,6.27
2022-11-18T23:16:08.488Z,6.45
2022-11-18T23:18:53.957Z,6.43
2022-11-18T23:21:40.204Z,6.60
2022-11-18T23:24:25.557Z,7.37
2022-11-18T23:27:10.961Z,7.13
2022-11-18T23:29:56.118Z,5.73
2022-11-18T23:32:41.559Z,7.20
2022-11-18T23:35:26.753Z,6.47
2022-11-18T23:38:12.066Z,6.57
2022-11-18T23:41:00.218Z,7.30
2022-11-18T23:43:48.226Z,6.63
2022-11-18T23:46:34.515Z,6.10
2022-11-18T23:49:20.490Z,7.07
2022-11-18T23:52:06.607Z,6.30
2022-11-18T23:54:53.084Z,6.50
2022-11-18T23:57:38.667Z,6.63
